createdAt,value
2022-07-26T00:01:33.633Z,70.43
2022-07-26T00:04:35.936Z,70.71
2022-07-26T00:07:39.324Z,70.88
2022-07-26T00:10:44.095Z,71.17
2022-07-26T00:13:46.083Z,71.41
2022-07-26T00:16:48.362Z,71.77
2022-07-26T00:19:50.186Z,71.75
2022-07-26T00:22:51.960Z,71.96
2022-07-26T00:25:53.678Z,72.04
2022-07-26T00:28:55.531Z,72.30
2022-07-26T00:31:57.411Z,72.40
2022-07-26T00:34:59.414Z,72.54
2022-07-26T00:38:01.210Z,72.66
2022-07-26T00:41:03.078Z,72.34
2022-07-26T00:44:05.128Z,72.46
2022-07-26T00:47:07.182Z,72.25
2022-07-26T00:50:12.422Z,72.20
2022-07-26T00:53:14.402Z,72.63
2022-07-26T00:56:17.381Z,73.09
2022-07-26T00:59:19.212Z,73.47
2022-07-26T01:02:20.997Z,73.53
2022-07-26T01:05:23.643Z,73.65
2022-07-26T01:08:25.547Z,74.02
2022-07-26T01:11:27.399Z,74.05
2022-07-26T01:14:29.291Z,74.31
2022-07-26T01:17:31.045Z,74.53
2022-07-26T01:20:36.361Z,74.66
2022-07-26T01:23:38.751Z,74.97
2022-07-26T01:26:40.599Z,74.97
2022-07-26T01:29:42.435Z,75.23
2022-07-26T01:32:44.292Z,75.50
2022-07-26T01:35:46.041Z,75.83
2022-07-26T01:38:48.034Z,75.61
2022-07-26T01:41:49.826Z,75.70
2022-07-26T01:44:51.558Z,75.71
2022-07-26T01:47:53.376Z,76.06
2022-07-26T01:50:55.241Z,76.19
2022-07-26T01:53:57.245Z,76.27
2022-07-26T01:57:10.514Z,76.28
2022-07-26T02:00:13.665Z,76.53
2022-07-26T02:03:15.728Z,76.53
2022-07-26T02:06:17.502Z,76.71
2022-07-26T02:09:19.684Z,76.66
2022-07-26T02:12:23.026Z,76.10
2022-07-26T02:15:24.975Z,75.88
2022-07-26T02:18:28.693Z,76.59
2022-07-26T02:21:30.492Z,76.97
2022-07-26T02:24:33.073Z,77.03
2022-07-26T02:27:34.953Z,77.32
2022-07-26T02:30:36.898Z,77.52
2022-07-26T02:33:38.610Z,77.49
2022-07-26T02:36:40.285Z,77.52
2022-07-26T02:39:42.253Z,77.82
2022-07-26T02:42:44.023Z,77.79
2022-07-26T02:45:45.815Z,77.92
2022-07-26T02:49:04.149Z,78.19
2022-07-26T02:52:05.933Z,77.86
2022-07-26T02:55:08.215Z,77.91
2022-07-26T02:58:10.001Z,77.91
2022-07-26T03:01:11.988Z,78.34
2022-07-26T03:04:15.452Z,78.42
2022-07-26T03:07:17.186Z,78.70
2022-07-26T03:10:19.111Z,78.62
2022-07-26T03:13:20.941Z,78.79
2022-07-26T03:16:27.348Z,79.01
2022-07-26T03:19:31.114Z,79.29
2022-07-26T03:22:32.923Z,79.26
2022-07-26T03:25:37.670Z,79.47
2022-07-26T03:28:42.272Z,79.61
2022-07-26T03:31:44.487Z,79.94
2022-07-26T03:34:46.435Z,79.52
2022-07-26T03:37:48.092Z,79.35
2022-07-26T03:40:49.892Z,79.80
2022-07-26T03:43:51.637Z,79.93
2022-07-26T03:46:53.477Z,80.20
2022-07-26T03:49:55.247Z,80.21
2022-07-26T03:52:57.023Z,80.19
2022-07-26T03:56:17.362Z,80.05
2022-07-26T03:59:19.297Z,79.97
2022-07-26T04:02:21.342Z,79.95
2022-07-26T04:05:23.944Z,79.81
2022-07-26T04:08:28.343Z,79.93
2022-07-26T04:11:30.422Z,79.92
2022-07-26T04:14:32.138Z,80.02
2022-07-26T04:17:40.946Z,79.95
2022-07-26T04:20:43.276Z,79.78
2022-07-26T04:23:50.754Z,79.80
2022-07-26T04:26:53.087Z,79.79
2022-07-26T04:29:54.937Z,79.72
2022-07-26T04:32:56.780Z,79.35
2022-07-26T04:35:58.978Z,79.20
2022-07-26T04:39:00.627Z,79.30
2022-07-26T04:42:02.326Z,79.11
2022-07-26T04:45:08.303Z,79.38
2022-07-26T04:48:10.522Z,79.69
2022-07-26T04:51:12.286Z,79.85
2022-07-26T04:54:15.670Z,79.77
2022-07-26T04:57:17.563Z,79.36
2022-07-26T05:00:24.381Z,78.87
2022-07-26T05:03:26.361Z,78.62
2022-07-26T05:06:28.075Z,78.59
2022-07-26T05:09:30.071Z,78.72
2022-07-26T05:12:31.925Z,79.09
2022-07-26T05:15:36.341Z,79.04
2022-07-26T05:18:48.847Z,78.58
2022-07-26T05:21:51.885Z,77.43
2022-07-26T05:24:53.516Z,76.84
2022-07-26T05:27:55.282Z,74.93
2022-07-26T05:30:57.091Z,74.32
2022-07-26T05:33:58.852Z,73.52
2022-07-26T05:37:00.673Z,73.48
2022-07-26T05:40:04.544Z,73.81
2022-07-26T05:43:06.405Z,73.37
2022-07-26T05:46:09.845Z,72.78
2022-07-26T05:49:11.923Z,72.89
2022-07-26T05:52:13.742Z,72.58
2022-07-26T05:55:15.520Z,72.39
2022-07-26T05:58:17.338Z,72.88
2022-07-26T06:01:19.704Z,73.04
2022-07-26T06:04:22.475Z,72.83
2022-07-26T06:07:26.942Z,72.64
2022-07-26T06:10:28.768Z,72.74
2022-07-26T06:13:30.665Z,72.52
2022-07-26T06:16:32.525Z,71.42
2022-07-26T06:19:35.026Z,71.16
2022-07-26T06:22:36.873Z,70.44
2022-07-26T06:25:38.863Z,69.21
2022-07-26T06:28:41.338Z,68.94
2022-07-26T06:31:43.202Z,67.83
2022-07-26T06:34:44.988Z,67.57
2022-07-26T06:37:49.334Z,67.18
2022-07-26T06:40:51.188Z,67.10
2022-07-26T06:43:54.525Z,67.18
2022-07-26T06:46:56.548Z,67.00
2022-07-26T06:50:00.066Z,67.32
2022-07-26T06:53:02.045Z,67.41
2022-07-26T06:56:04.185Z,67.79
2022-07-26T06:59:09.407Z,68.84
2022-07-26T07:02:11.400Z,69.48
2022-07-26T07:05:13.407Z,69.62
2022-07-26T07:08:15.851Z,69.25
2022-07-26T07:11:19.740Z,69.34
2022-07-26T07:14:22.234Z,68.21
2022-07-26T07:17:23.998Z,66.88
2022-07-26T07:20:26.699Z,65.86
2022-07-26T07:23:28.654Z,65.05
2022-07-26T07:26:30.523Z,65.01
2022-07-26T07:29:32.666Z,64.66
2022-07-26T07:32:34.677Z,64.74
2022-07-26T07:35:37.012Z,64.90
2022-07-26T07:38:38.743Z,64.65
2022-07-26T07:41:48.830Z,64.32
2022-07-26T07:44:50.789Z,62.93
2022-07-26T07:47:52.482Z,61.97
2022-07-26T07:50:54.618Z,60.37
2022-07-26T07:53:57.948Z,59.90
2022-07-26T07:57:01.099Z,60.09
2022-07-26T08:00:05.108Z,60.90
2022-07-26T08:03:07.090Z,61.25
2022-07-26T08:06:10.667Z,61.68
2022-07-26T08:09:13.309Z,60.66
2022-07-26T08:12:15.563Z,59.14
2022-07-26T08:15:17.747Z,58.19
2022-07-26T08:18:22.898Z,57.85
2022-07-26T08:21:28.302Z,57.48
2022-07-26T08:24:31.217Z,57.27
2022-07-26T08:27:40.438Z,57.51
2022-07-26T08:30:43.125Z,57.99
2022-07-26T08:33:45.748Z,58.70
2022-07-26T08:37:14.198Z,58.54
2022-07-26T08:40:10.396Z,58.47
2022-07-26T08:43:12.326Z,58.31
2022-07-26T08:46:14.329Z,58.67
2022-07-26T08:49:16.417Z,58.99
2022-07-26T08:52:18.211Z,59.06
2022-07-26T08:55:21.002Z,59.10
2022-07-26T08:58:22.748Z,59.67
2022-07-26T09:01:24.670Z,60.13
2022-07-26T09:04:32.785Z,60.47
2022-07-26T09:07:36.098Z,61.10
2022-07-26T09:10:39.350Z,61.09
2022-07-26T09:13:51.041Z,61.19
2022-07-26T09:16:58.689Z,61.57
2022-07-26T09:20:24.527Z,61.97
2022-07-26T09:23:40.008Z,62.30
2022-07-26T09:26:55.397Z,62.84
2022-07-26T09:30:05.962Z,63.31
2022-07-26T09:33:11.254Z,63.91
2022-07-26T09:36:13.585Z,64.81
2022-07-26T09:39:15.632Z,65.15
2022-07-26T09:42:28.474Z,65.65
2022-07-26T09:45:33.810Z,66.46
2022-07-26T09:49:09.858Z,66.95
2022-07-26T09:52:00.439Z,67.36
2022-07-26T09:55:06.358Z,66.68
2022-07-26T09:58:08.208Z,66.19
2022-07-26T10:01:09.995Z,66.75
2022-07-26T10:04:13.342Z,67.19
2022-07-26T10:07:17.265Z,67.20
2022-07-26T10:10:26.064Z,68.21
2022-07-26T10:13:28.573Z,69.45
2022-07-26T10:16:33.198Z,70.61
2022-07-26T10:19:45.641Z,70.89
2022-07-26T10:22:50.758Z,72.54
2022-07-26T10:25:53.032Z,73.94
2022-07-26T10:28:55.379Z,75.56
2022-07-26T10:32:00.468Z,76.11
2022-07-26T10:35:34.575Z,77.17
2022-07-26T10:38:37.848Z,78.91
2022-07-26T10:41:44.095Z,78.81
2022-07-26T10:44:45.888Z,80.81
2022-07-26T10:48:14.718Z,81.63
2022-07-26T10:51:27.781Z,81.39
2022-07-26T10:54:29.839Z,82.06
2022-07-26T10:57:34.663Z,82.16
2022-07-26T11:00:36.559Z,83.18
2022-07-26T11:03:40.559Z,84.05
2022-07-26T11:06:42.623Z,84.50
2022-07-26T11:09:44.541Z,84.96
2022-07-26T11:12:46.292Z,85.28
2022-07-26T11:15:50.906Z,86.20
2022-07-26T11:18:52.795Z,87.37
2022-07-26T11:22:03.635Z,87.73
2022-07-26T11:25:05.978Z,87.03
2022-07-26T11:28:08.380Z,87.76
2022-07-26T11:31:11.582Z,87.74
2022-07-26T11:34:22.094Z,86.85
2022-07-26T11:37:24.104Z,86.61
2022-07-26T11:40:46.120Z,86.07
2022-07-26T11:43:49.427Z,85.44
2022-07-26T11:46:51.738Z,85.47
2022-07-26T11:50:13.951Z,85.31
2022-07-26T11:53:23.249Z,85.08
2022-07-26T11:56:25.948Z,84.81
2022-07-26T11:59:30.495Z,84.65
2022-07-26T12:02:32.377Z,84.95
2022-07-26T12:05:34.859Z,84.74
2022-07-26T12:08:40.375Z,84.81
2022-07-26T12:11:44.468Z,84.63
2022-07-26T12:15:05.729Z,84.58
2022-07-26T12:18:08.931Z,84.45
2022-07-26T12:21:11.355Z,84.77
2022-07-26T12:24:45.060Z,84.81
2022-07-26T12:27:47.439Z,84.83
2022-07-26T12:30:49.219Z,84.86
2022-07-26T12:33:51.191Z,84.66
2022-07-26T12:36:53.097Z,84.76
2022-07-26T12:40:07.968Z,84.62
2022-07-26T12:43:10.179Z,84.94
2022-07-26T12:46:12.203Z,84.74
2022-07-26T12:49:14.005Z,84.67
2022-07-26T12:52:17.623Z,84.80
2022-07-26T12:55:21.673Z,84.97
2022-07-26T12:58:23.446Z,84.98
2022-07-26T13:01:25.205Z,85.06
2022-07-26T13:04:27.112Z,85.06
2022-07-26T13:07:28.934Z,84.84
2022-07-26T13:10:33.656Z,84.88
2022-07-26T13:13:36.061Z,84.80
2022-07-26T13:16:37.899Z,85.05
2022-07-26T13:19:39.817Z,85.12
2022-07-26T13:22:42.351Z,85.30
2022-07-26T13:25:44.096Z,85.63
2022-07-26T13:28:49.639Z,85.41
2022-07-26T13:31:52.133Z,85.35
2022-07-26T13:34:53.834Z,85.62
2022-07-26T13:37:55.512Z,85.60
2022-07-26T13:40:57.322Z,85.19
2022-07-26T13:44:00.908Z,85.02
2022-07-26T13:47:02.676Z,84.32
2022-07-26T13:50:04.707Z,84.56
2022-07-26T13:53:08.503Z,85.22
2022-07-26T13:56:10.471Z,85.39
2022-07-26T13:59:13.018Z,85.78
2022-07-26T14:02:15.312Z,86.12
2022-07-26T14:05:17.544Z,86.29
2022-07-26T14:08:19.964Z,86.61
2022-07-26T14:11:21.979Z,86.56
2022-07-26T14:14:23.786Z,86.56
2022-07-26T14:17:25.481Z,86.82
2022-07-26T14:20:27.611Z,86.84
2022-07-26T14:23:29.854Z,86.60
2022-07-26T14:26:31.977Z,86.55
2022-07-26T14:29:34.009Z,86.12
2022-07-26T14:32:35.723Z,86.39
2022-07-26T14:35:37.600Z,86.65
2022-07-26T14:38:41.337Z,87.24
2022-07-26T14:41:43.203Z,87.64
2022-07-26T14:44:45.158Z,88.06
2022-07-26T14:47:46.981Z,88.60
2022-07-26T14:51:08.686Z,88.81
2022-07-26T14:54:13.186Z,89.44
2022-07-26T14:57:15.511Z,89.98
2022-07-26T15:00:18.788Z,90.27
2022-07-26T15:03:20.834Z,90.44
2022-07-26T15:06:22.830Z,90.65
2022-07-26T15:09:24.675Z,91.10
2022-07-26T15:12:26.592Z,91.47
2022-07-26T15:15:29.263Z,91.72
2022-07-26T15:18:31.038Z,91.94
2022-07-26T15:21:32.901Z,92.00
2022-07-26T15:24:39.571Z,92.45
2022-07-26T15:27:42.158Z,92.84
2022-07-26T15:30:44.122Z,93.10
2022-07-26T15:33:46.722Z,93.73
2022-07-26T15:36:48.450Z,93.99
2022-07-26T15:39:51.853Z,94.52
2022-07-26T15:42:54.017Z,94.77
2022-07-26T15:45:57.717Z,94.87
2022-07-26T15:49:01.839Z,94.94
2022-07-26T15:52:04.714Z,94.97
2022-07-26T15:55:07.986Z,95.02
2022-07-26T15:58:09.988Z,95.20
2022-07-26T16:01:11.888Z,95.64
2022-07-26T16:04:14.854Z,95.75
2022-07-26T16:07:16.951Z,95.96
2022-07-26T16:10:18.813Z,96.11
2022-07-26T16:13:20.498Z,96.33
2022-07-26T16:16:22.644Z,96.55
2022-07-26T16:19:24.453Z,96.62
2022-07-26T16:22:26.302Z,97.01
2022-07-26T16:25:28.030Z,97.29
2022-07-26T16:28:29.826Z,97.39
2022-07-26T16:31:31.693Z,97.68
2022-07-26T16:34:34.859Z,97.85
2022-07-26T16:37:36.663Z,98.91
2022-07-26T16:40:38.341Z,99.38
2022-07-26T16:43:40.516Z,99.53
2022-07-26T16:46:42.387Z,99.70
2022-07-26T16:49:46.285Z,99.86
2022-07-26T16:52:48.082Z,100.00
2022-07-26T16:55:51.968Z,100.00
2022-07-26T16:58:53.734Z,100.00
2022-07-26T17:01:55.627Z,100.00
2022-07-26T17:05:01.363Z,100.00
2022-07-26T17:08:03.152Z,100.00
2022-07-26T17:11:04.998Z,100.00
2022-07-26T17:14:07.081Z,100.00
2022-07-26T17:17:09.103Z,100.00
2022-07-26T17:20:11.427Z,100.00
2022-07-26T17:23:13.244Z,100.00
2022-07-26T17:26:19.014Z,100.00
2022-07-26T17:29:21.003Z,100.00
2022-07-26T17:32:22.758Z,100.00
2022-07-26T17:35:26.697Z,100.00
2022-07-26T17:38:28.551Z,100.00
2022-07-26T17:41:32.975Z,100.00
2022-07-26T17:44:35.374Z,100.00
2022-07-26T17:47:37.327Z,100.00
2022-07-26T17:50:39.163Z,100.00
2022-07-26T17:53:43.406Z,100.00
2022-07-26T17:56:46.005Z,100.00
2022-07-26T17:59:47.781Z,100.00
2022-07-26T18:02:49.796Z,100.00
2022-07-26T18:05:51.942Z,100.00
2022-07-26T18:08:54.055Z,100.00
2022-07-26T18:11:55.745Z,100.00
2022-07-26T18:14:57.687Z,100.00
2022-07-26T18:17:59.737Z,100.00
2022-07-26T18:21:01.550Z,100.00
2022-07-26T18:24:16.261Z,100.00
2022-07-26T18:27:19.708Z,100.00
2022-07-26T18:30:21.801Z,100.00
2022-07-26T18:33:23.626Z,100.00
2022-07-26T18:36:28.334Z,100.00
2022-07-26T18:39:32.935Z,100.00
2022-07-26T18:42:36.327Z,100.00
2022-07-26T18:45:38.040Z,100.00
2022-07-26T18:48:41.786Z,100.00
2022-07-26T18:51:44.742Z,100.00
2022-07-26T18:54:50.550Z,100.00
2022-07-26T18:57:53.857Z,100.00
2022-07-26T19:00:55.711Z,100.00
2022-07-26T19:03:57.522Z,100.00
2022-07-26T19:06:59.246Z,100.00
2022-07-26T19:10:01.036Z,100.00
2022-07-26T19:13:02.823Z,100.00
2022-07-26T19:16:04.799Z,100.00
2022-07-26T19:19:06.816Z,100.00
2022-07-26T19:22:08.760Z,100.00
2022-07-26T19:25:13.623Z,100.00
2022-07-26T19:28:15.365Z,100.00
2022-07-26T19:31:17.193Z,100.00
2022-07-26T19:34:19.441Z,100.00
2022-07-26T19:37:21.628Z,100.00
2022-07-26T19:40:23.872Z,100.00
2022-07-26T19:43:25.652Z,100.00
2022-07-26T19:46:27.591Z,100.00
2022-07-26T19:49:29.687Z,100.00
2022-07-26T19:52:31.598Z,100.00
2022-07-26T19:55:33.515Z,100.00
2022-07-26T19:58:35.287Z,100.00
2022-07-26T20:01:37.341Z,100.00
2022-07-26T20:04:42.959Z,100.00
2022-07-26T20:07:49.139Z,100.00
2022-07-26T20:10:51.675Z,100.00
2022-07-26T20:13:53.995Z,100.00
2022-07-26T20:16:58.019Z,100.00
2022-07-26T20:19:59.744Z,100.00
2022-07-26T20:23:03.555Z,100.00
2022-07-26T20:26:05.298Z,100.00
2022-07-26T20:29:07.649Z,100.00
2022-07-26T20:32:09.489Z,100.00
2022-07-26T20:35:11.548Z,100.00
2022-07-26T20:38:13.392Z,100.00
2022-07-26T20:41:15.267Z,100.00
2022-07-26T20:44:19.759Z,100.00
2022-07-26T20:47:24.824Z,100.00
2022-07-26T20:50:26.653Z,100.00
2022-07-26T20:53:28.346Z,100.00
2022-07-26T20:56:32.455Z,100.00
2022-07-26T20:59:35.253Z,100.00
2022-07-26T21:02:37.192Z,100.00
2022-07-26T21:05:39.019Z,100.00
2022-07-26T21:08:40.734Z,100.00
2022-07-26T21:11:42.433Z,100.00
2022-07-26T21:14:44.285Z,100.00
2022-07-26T21:17:46.053Z,100.00
2022-07-26T21:20:48.099Z,100.00
2022-07-26T21:23:49.888Z,100.00
2022-07-26T21:26:51.815Z,100.00
2022-07-26T21:29:54.419Z,100.00
2022-07-26T21:32:56.315Z,100.00
2022-07-26T21:35:58.187Z,100.00
2022-07-26T21:38:59.986Z,100.00
2022-07-26T21:42:02.610Z,100.00
2022-07-26T21:45:05.457Z,100.00
2022-07-26T21:48:07.279Z,100.00
2022-07-26T21:51:08.998Z,100.00
2022-07-26T21:54:10.800Z,100.00
2022-07-26T21:57:12.651Z,100.00
2022-07-26T22:00:15.900Z,100.00
2022-07-26T22:03:29.929Z,100.00
2022-07-26T22:06:34.346Z,100.00
2022-07-26T22:09:36.219Z,100.00
2022-07-26T22:12:37.953Z,100.00
2022-07-26T22:15:39.775Z,100.00
2022-07-26T22:18:41.595Z,100.00
2022-07-26T22:21:43.358Z,100.00
2022-07-26T22:24:45.126Z,100.00
2022-07-26T22:27:46.827Z,100.00
2022-07-26T22:30:48.669Z,100.00
2022-07-26T22:33:50.622Z,100.00
2022-07-26T22:36:52.598Z,100.00
2022-07-26T22:39:54.387Z,100.00
2022-07-26T22:42:58.640Z,100.00
2022-07-26T22:46:00.438Z,100.00
2022-07-26T22:49:02.367Z,100.00
2022-07-26T22:52:04.315Z,100.00
2022-07-26T22:55:06.586Z,100.00
2022-07-26T22:58:08.560Z,100.00
2022-07-26T23:01:10.298Z,100.00
2022-07-26T23:04:12.143Z,100.00
2022-07-26T23:07:14.726Z,100.00
2022-07-26T23:10:17.450Z,100.00
2022-07-26T23:13:19.284Z,100.00
2022-07-26T23:16:21.032Z,100.00
2022-07-26T23:19:25.294Z,100.00
2022-07-26T23:22:27.375Z,100.00
2022-07-26T23:25:29.046Z,100.00
2022-07-26T23:28:35.739Z,100.00
2022-07-26T23:31:39.958Z,100.00
2022-07-26T23:34:41.651Z,100.00
2022-07-26T23:37:43.447Z,100.00
2022-07-26T23:40:45.191Z,100.00
2022-07-26T23:43:47.140Z,100.00
2022-07-26T23:46:48.897Z,100.00
2022-07-26T23:49:50.621Z,100.00
2022-07-26T23:52:52.346Z,100.00
2022-07-26T23:55:55.793Z,100.00
2022-07-26T23:58:57.586Z,100.00
